Impacts METAR Board
IDs:

KMEM - Memphis Intl, TN, US

Updated at: 2100 UTC 20 Jun 2019
Potential Impact None Slight Moderate High
Time 20/09Z 20/10Z 20/11Z 20/12Z 20/13Z 20/14Z 20/15Z 20/16Z 20/17Z 20/18Z 20/19Z 20/20Z 20/21Z
Temp70 70 70 70 73 76 79 79 81 83 85 86 86
Dewpt69 69 68 68 68 69 68 69 70 72 71 70 70
Altim29.73 29.75 29.75 29.75 29.77 29.80 29.81 29.83 29.85 29.85 29.85 29.85 29.84
VIS10 10 10 10 10 10 10 10 10 10 10 10 10
CIG95 230 150 150 150 -- -- 26 26 48 -- 40 44
CoverOVCOVCOVCBKNBKNSCTSCTBKNBKNBKNSCTBKNBKN
FltCatVFRVFRVFRVFRVFRVFRVFRMVFRMVFRVFRVFRVFRVFR
WX--------------------------
WDir2002100190240260250260240240290260220
WSpd8 5 3 5 9 8 10 9 8 5 6 10 8
WGst-- -- -- -- 16 16 -- 19 -- -- -- 14 --
Raw hourly METARs
KMEM 200854Z 20008KT 10SM FEW060 BKN095 OVC250 21/21 A2973 RMK AO2 SLP062 60000 T02110206 50010 $
KMEM 200954Z 21005KT 10SM SCT100 OVC230 21/21 A2975 RMK AO2 LTG DSNT NW SLP069 T02110206 $
KMEM 201054Z VRB03KT 10SM FEW100 BKN150 OVC250 21/20 A2975 RMK AO2 SLP071 T02110200 $
KMEM 201154Z 19005KT 10SM FEW090 BKN150 BKN250 21/20 A2975 RMK AO2 SLP071 60000 70055 T02110200 10222 20211 50008 $
KMEM 201254Z 24009G16KT 10SM SCT090 BKN150 BKN250 23/20 A2977 RMK AO2 SLP077 T02280200
KMEM 201354Z 26008G16KT 10SM FEW065 SCT090 SCT250 24/21 A2980 RMK AO2 SLP085 T02440206
KMEM 201454Z COR 25010KT 10SM FEW020 FEW050 SCT250 26/20 A2981 RMK AO2 SLP090 T02610200 51020
KMEM 201554Z 26009G19KT 10SM BKN026 BKN055 BKN250 26/21 A2983 RMK AO2 SLP097 T02610206
KMEM 201654Z 24008KT 10SM BKN026 BKN055 BKN250 27/21 A2985 RMK AO2 SLP102 T02720211 $
KMEM 201754Z 24005KT 10SM SCT029 BKN048 28/22 A2985 RMK AO2 SLP103 T02830222 10289 20211 51013 $
KMEM 201901Z 29006KT 10SM FEW036 SCT047 29/22 A2985 RMK AO2 T02940217 $
KMEM 201954Z 26010G14KT 10SM BKN040 BKN055 30/21 A2985 RMK AO2 SLP104 T03000211
KMEM 202054Z 22008KT 10SM BKN044 BKN060 30/21 A2984 RMK AO2 SLP101 T03000211 58003



Page loaded:  21:54 UTC  |   02:54 PM Pacific  |   03:54 PM Mountain  |   04:54 PM Central  |   05:54 PM Eastern

 

ADVISORIES

FORECASTS

FORECASTS

OBSERVATIONS

USER TOOLS

ABOUT US